Time;durP1;ratioP1;P1;durP2;ratioP2;P2;SDS_P1;SDS_P2;PMS_P1;PMS_P2;Temp;Humidity;BMP_temperature;BMP_pressure;BME280_temperature;BME280_humidity;BME280_pressure;Samples;Min_cycle;Max_cycle;Signal;HPM_P1;HPM_P2
2023/06/17 00:00:57;;;;;;;1.05;0.95;;;;;;;15.99;69.78;99209.25;5033773;28;20053;-62
2023/06/17 00:03:26;;;;;;;0.70;0.70;;;;;;;16.00;69.77;99210.13;5033461;28;20522;-62
2023/06/17 00:05:55;;;;;;;1.83;1.60;;;;;;;16.02;69.47;99209.19;5033244;28;20046;-62
2023/06/17 00:08:24;;;;;;;2.15;0.70;;;;;;;16.10;68.83;99207.19;5033275;28;20046;-62
2023/06/17 00:10:54;;;;;;;0.57;0.57;;;;;;;16.17;68.76;99201.88;5033370;28;20050;-62
2023/06/17 00:13:25;;;;;;;0.63;0.63;;;;;;;16.25;68.48;99197.31;5033374;28;20095;-62
2023/06/17 00:15:56;;;;;;;0.60;0.60;;;;;;;16.27;68.82;99203.28;5033536;28;20451;-62
2023/06/17 00:18:26;;;;;;;0.75;0.70;;;;;;;16.26;69.08;99206.72;5033201;28;20049;-62
2023/06/17 00:20:57;;;;;;;0.60;0.60;;;;;;;16.21;69.24;99203.47;5033239;28;20487;-62
2023/06/17 00:23:27;;;;;;;0.68;0.68;;;;;;;16.15;69.31;99198.50;5033210;28;20495;-63
2023/06/17 00:25:57;;;;;;;0.90;0.85;;;;;;;16.00;70.09;99195.47;5033094;28;20128;-62
2023/06/17 00:28:26;;;;;;;0.47;0.47;;;;;;;15.85;70.45;99206.25;5033147;28;20045;-63
2023/06/17 00:30:55;;;;;;;0.38;0.38;;;;;;;15.88;71.30;99211.28;5033696;28;20474;-62
2023/06/17 00:33:24;;;;;;;1.50;1.40;;;;;;;15.89;70.86;99209.56;5036952;28;20042;-62
2023/06/17 00:35:53;;;;;;;1.47;1.33;;;;;;;15.92;70.54;99212.06;5036975;28;20054;-63
2023/06/17 00:38:23;;;;;;;1.73;1.00;;;;;;;15.89;70.49;99210.41;5052281;28;20107;-62
2023/06/17 00:40:53;;;;;;;2.92;1.00;;;;;;;15.84;70.12;99214.88;5036807;28;20046;-62
2023/06/17 00:43:23;;;;;;;1.37;1.27;;;;;;;15.77;70.25;99208.22;5036845;28;20056;-63
2023/06/17 00:45:52;;;;;;;2.08;0.82;;;;;;;15.73;70.75;99206.63;5037010;28;20053;-62
2023/06/17 00:48:23;;;;;;;0.98;0.88;;;;;;;15.72;70.92;99209.22;5036652;28;20136;-62
2023/06/17 00:50:53;;;;;;;0.70;0.65;;;;;;;15.58;70.85;99201.91;5052045;28;20076;-63
2023/06/17 00:53:22;;;;;;;0.75;0.75;;;;;;;15.59;71.56;99208.75;5036599;28;20051;-62
2023/06/17 00:55:51;;;;;;;0.65;0.60;;;;;;;15.55;71.35;99207.13;5036566;28;20403;-62
2023/06/17 00:58:20;;;;;;;0.70;0.70;;;;;;;15.44;71.86;99209.16;5036469;28;20049;-62
2023/06/17 01:00:50;;;;;;;0.90;0.88;;;;;;;15.30;72.12;99198.41;5036798;28;20091;-62
2023/06/17 01:03:19;;;;;;;2.42;1.48;;;;;;;15.22;72.61;99202.91;5036849;28;20049;-62
2023/06/17 01:05:49;;;;;;;0.80;0.70;;;;;;;15.12;73.08;99191.16;5036616;28;20151;-62
2023/06/17 01:08:28;;;;;;;0.85;0.75;;;;;;;15.12;73.48;99196.31;5051763;28;20046;-62
2023/06/17 01:11:04;;;;;;;0.70;0.70;;;;;;;15.07;73.49;99203.34;5037133;28;20049;-62
2023/06/17 01:13:35;;;;;;;1.05;0.90;;;;;;;14.83;74.08;99198.81;5036774;28;20476;-62
2023/06/17 01:16:06;;;;;;;0.70;0.70;;;;;;;14.83;74.71;99209.91;5036497;28;20107;-62
2023/06/17 01:18:36;;;;;;;1.13;1.02;;;;;;;14.88;75.01;99208.09;5051537;28;20129;-62
2023/06/17 01:21:06;;;;;;;1.15;1.05;;;;;;;14.96;74.84;99205.31;5036141;28;20063;-62
2023/06/17 01:23:37;;;;;;;0.60;0.60;;;;;;;14.89;74.44;99204.63;5051548;28;20521;-62
2023/06/17 01:26:08;;;;;;;0.68;0.68;;;;;;;14.70;75.02;99203.44;5035944;28;20503;-62
2023/06/17 01:28:40;;;;;;;7.07;1.20;;;;;;;14.62;75.38;99192.47;5051964;28;20453;-62
2023/06/17 01:31:12;;;;;;;2.38;1.42;;;;;;;14.60;75.49;99196.81;5035901;28;20140;-62
2023/06/17 01:33:45;;;;;;;0.63;0.60;;;;;;;14.58;75.68;99208.88;5036070;28;20088;-62
2023/06/17 01:36:19;;;;;;;0.82;0.82;;;;;;;14.62;75.93;99213.88;5051022;28;20049;-62
2023/06/17 01:38:52;;;;;;;0.80;0.80;;;;;;;14.62;75.97;99205.31;5035781;28;20055;-62
2023/06/17 01:41:27;;;;;;;0.50;0.50;;;;;;;14.42;76.21;99198.09;5034983;28;20136;-62
2023/06/17 01:43:58;;;;;;;0.75;0.75;;;;;;;14.47;76.46;99205.69;5051239;28;20061;-61
2023/06/17 01:46:27;;;;;;;1.05;0.77;;;;;;;14.53;76.14;99211.53;5035534;28;20042;-61
2023/06/17 01:48:57;;;;;;;0.80;0.80;;;;;;;14.56;76.26;99210.63;5035586;28;20053;-61
2023/06/17 01:51:26;;;;;;;;;;;;;;;14.59;75.95;99210.53;5034921;28;20204;-61
2023/06/17 01:53:55;;;;;;;1.65;1.42;;;;;;;14.62;75.88;99216.44;5050919;28;19925;-61
2023/06/17 01:56:25;;;;;;;2.85;1.33;;;;;;;14.50;75.80;99226.16;5035506;28;20053;-61
2023/06/17 01:58:54;;;;;;;1.00;0.95;;;;;;;14.42;76.29;99217.81;5034411;28;20059;-61
2023/06/17 02:01:23;;;;;;;1.47;1.10;;;;;;;14.46;76.91;99220.28;5036161;28;20450;-61
2023/06/17 02:03:53;;;;;;;0.52;0.52;;;;;;;14.47;77.04;99227.09;5050846;28;20291;-61
2023/06/17 02:06:22;;;;;;;1.67;1.40;;;;;;;14.38;77.00;99224.75;5050608;28;20053;-61
2023/06/17 02:08:52;;;;;;;0.68;0.68;;;;;;;14.34;77.47;99225.69;5035231;28;20107;-61
2023/06/17 02:11:22;;;;;;;0.63;0.63;;;;;;;14.35;77.30;99211.97;5050530;28;20053;-61
2023/06/17 02:13:53;;;;;;;1.30;1.17;;;;;;;14.25;77.30;99215.63;5035115;28;20056;-61
2023/06/17 02:16:22;;;;;;;0.93;0.90;;;;;;;14.27;77.37;99229.25;5035054;28;20053;-62
2023/06/17 02:18:52;;;;;;;1.58;1.48;;;;;;;14.29;77.52;99226.63;5050449;28;20411;-61
2023/06/17 02:21:21;;;;;;;1.40;0.68;;;;;;;14.23;77.28;99222.47;5035009;28;20056;-61
2023/06/17 02:23:50;;;;;;;1.13;1.03;;;;;;;14.06;77.73;99210.03;5050417;28;20072;-61
2023/06/17 02:26:19;;;;;;;1.63;1.53;;;;;;;14.18;77.63;99226.88;5034916;28;20049;-61
2023/06/17 02:28:48;;;;;;;1.02;0.98;;;;;;;14.20;77.76;99222.56;5034821;28;20049;-61
2023/06/17 02:31:18;;;;;;;0.53;0.53;;;;;;;14.14;78.28;99217.56;5049993;28;20065;-61
2023/06/17 02:33:47;;;;;;;2.35;1.35;;;;;;;14.10;77.95;99214.25;5034748;28;20045;-61
2023/06/17 02:36:18;;;;;;;1.37;0.80;;;;;;;14.09;78.48;99229.66;5034761;28;20468;-62
2023/06/17 02:38:50;;;;;;;1.38;1.27;;;;;;;14.03;77.92;99219.53;5034739;28;20091;-61
2023/06/17 02:41:19;;;;;;;0.60;0.60;;;;;;;13.90;78.29;99228.38;5034557;28;20099;-61
2023/06/17 02:43:48;;;;;;;1.60;0.87;;;;;;;13.96;78.54;99230.81;5050175;28;20480;-62
2023/06/17 02:46:18;;;;;;;1.42;1.17;;;;;;;13.81;79.02;99188.38;5049908;28;20057;-61
2023/06/17 02:48:47;;;;;;;1.60;1.05;;;;;;;14.01;78.68;99231.56;5034365;28;20048;-61
2023/06/17 02:51:16;;;;;;;0.98;0.90;;;;;;;14.01;78.69;99231.56;5034402;28;20052;-61
2023/06/17 02:53:45;;;;;;;;;;;;;;;14.01;79.03;99231.56;5033993;28;20103;-61
2023/06/17 02:56:18;;;;;;;1.05;0.95;;;;;;;13.90;78.78;99230.94;5034324;28;19988;-61
2023/06/17 02:58:50;;;;;;;1.10;0.70;;;;;;;13.93;78.81;99229.16;5035049;28;20050;-62
2023/06/17 03:01:22;;;;;;;1.13;1.02;;;;;;;13.82;79.16;99220.00;5050011;28;20399;-61
2023/06/17 03:03:54;;;;;;;0.60;0.60;;;;;;;13.76;79.47;99230.38;5032966;28;20092;-61
2023/06/17 03:06:24;;;;;;;1.88;1.20;;;;;;;13.69;79.30;99233.94;5034100;28;20064;-61
2023/06/17 03:08:54;;;;;;;3.22;1.45;;;;;;;13.64;79.79;99231.47;5033973;28;20128;-61
2023/06/17 03:11:23;;;;;;;1.00;0.95;;;;;;;13.73;79.66;99233.84;5049422;28;20056;-61
2023/06/17 03:13:51;;;;;;;0.90;0.90;;;;;;;13.67;79.78;99234.00;5049321;28;20537;-61
2023/06/17 03:16:31;;;;;;;2.00;1.30;;;;;;;13.73;79.70;99225.31;5049924;28;20051;-61
2023/06/17 03:19:00;;;;;;;0.77;0.77;;;;;;;13.79;79.79;99232.88;5032991;28;20055;-61
2023/06/17 03:21:35;;;;;;;1.23;1.05;;;;;;;13.69;79.78;99224.53;5034171;28;20045;-61
2023/06/17 03:24:05;;;;;;;1.40;1.30;;;;;;;13.58;79.66;99228.22;5033917;28;20045;-61
2023/06/17 03:26:35;;;;;;;0.90;0.90;;;;;;;13.64;80.19;99228.91;5033812;28;20050;-61
2023/06/17 03:29:04;;;;;;;0.88;0.85;;;;;;;13.81;80.16;99231.13;5033700;28;20037;-61
2023/06/17 03:31:35;;;;;;;0.87;0.83;;;;;;;13.88;79.95;99236.09;5033690;28;20046;-61
2023/06/17 03:34:04;;;;;;;0.85;0.77;;;;;;;14.01;79.25;99234.13;5049015;28;20415;-61
2023/06/17 03:36:33;;;;;;;0.93;0.93;;;;;;;14.09;79.33;99239.91;5033487;28;20053;-61
2023/06/17 03:39:02;;;;;;;0.73;0.73;;;;;;;14.17;78.95;99232.91;5048989;28;20282;-61
2023/06/17 03:41:34;;;;;;;0.60;0.60;;;;;;;14.29;78.91;99245.47;5033632;28;20128;-61
2023/06/17 03:44:03;;;;;;;0.93;0.83;;;;;;;14.36;78.34;99239.34;5033543;28;20462;-61
2023/06/17 03:46:32;;;;;;;0.60;0.60;;;;;;;14.40;78.38;99246.09;5048980;28;20045;-61
2023/06/17 03:49:04;;;;;;;0.60;0.60;;;;;;;14.43;77.82;99248.59;5033493;28;20041;-61
2023/06/17 03:51:33;;;;;;;1.13;1.02;;;;;;;14.41;77.59;99242.66;5032411;28;20087;-61
2023/06/17 03:54:03;;;;;;;2.55;1.33;;;;;;;14.27;77.67;99243.81;5033367;28;20049;-61
2023/06/17 03:56:36;;;;;;;1.45;1.27;;;;;;;14.29;78.28;99242.91;5033670;28;20099;-61
2023/06/17 03:59:05;;;;;;;1.27;1.17;;;;;;;14.38;77.78;99232.44;5033443;28;20041;-61
2023/06/17 04:01:35;;;;;;;0.77;0.77;;;;;;;14.58;77.86;99240.53;5049869;28;20095;-61
2023/06/17 04:04:05;;;;;;;1.20;1.07;;;;;;;14.62;77.17;99247.28;5032149;28;20080;-61
2023/06/17 04:06:36;;;;;;;0.70;0.70;;;;;;;14.71;77.13;99241.91;5036701;28;20069;-61
2023/06/17 04:09:05;;;;;;;0.60;0.60;;;;;;;14.71;76.93;99234.19;5054104;28;20049;-61
2023/06/17 04:11:35;;;;;;;0.70;0.70;;;;;;;14.90;77.16;99244.84;5037910;28;20427;-61
2023/06/17 04:14:04;;;;;;;0.73;0.73;;;;;;;15.00;76.51;99243.75;5037373;28;20091;-61
2023/06/17 04:16:35;;;;;;;0.70;0.70;;;;;;;15.10;76.17;99246.91;5037691;28;20445;-61
2023/06/17 04:19:05;;;;;;;0.50;0.50;;;;;;;15.22;75.74;99236.31;5053046;28;20214;-61
2023/06/17 04:21:34;;;;;;;2.00;1.23;;;;;;;15.28;75.27;99228.47;5037223;28;20049;-62
2023/06/17 04:24:04;;;;;;;;;;;;;;;15.36;74.89;99241.94;5037625;28;20053;-61
2023/06/17 04:26:33;;;;;;;1.33;1.20;;;;;;;15.43;75.25;99244.31;5037678;28;20059;-62
2023/06/17 04:29:03;;;;;;;1.80;0.85;;;;;;;15.41;74.54;99233.22;5037153;28;20045;-62
2023/06/17 04:31:35;;;;;;;0.85;0.85;;;;;;;15.58;74.43;99248.22;5037011;28;20053;-62
2023/06/17 04:34:05;;;;;;;1.33;1.05;;;;;;;15.74;74.19;99259.75;5052456;28;20124;-62
2023/06/17 04:36:35;;;;;;;1.33;1.10;;;;;;;15.86;73.97;99259.41;5036696;28;20576;-62
2023/06/17 04:39:04;;;;;;;0.75;0.75;;;;;;;15.99;73.84;99260.75;5052273;28;20073;-62
2023/06/17 04:41:33;;;;;;;1.37;1.10;;;;;;;16.18;73.23;99262.75;5036835;28;20049;-62
2023/06/17 04:44:02;;;;;;;0.68;0.68;;;;;;;16.22;73.01;99261.81;5035609;28;20136;-62
2023/06/17 04:46:31;;;;;;;;;;;;;;;16.44;72.49;99261.09;5052735;28;20096;-62
2023/06/17 04:49:02;;;;;;;0.75;0.70;;;;;;;16.61;72.08;99251.13;5036650;28;19921;-62
2023/06/17 04:51:37;;;;;;;1.00;0.75;;;;;;;16.69;71.51;99249.16;5052099;28;20042;-62
2023/06/17 04:54:06;;;;;;;2.47;1.73;;;;;;;16.78;71.29;99255.72;5036619;28;20081;-61
2023/06/17 04:56:35;;;;;;;0.80;0.80;;;;;;;16.94;70.76;99254.31;5051928;28;20053;-62
2023/06/17 04:59:04;;;;;;;1.58;1.02;;;;;;;17.01;70.24;99255.81;5036522;28;20041;-62
2023/06/17 05:01:33;;;;;;;0.98;0.82;;;;;;;17.11;69.99;99252.03;5037003;28;20454;-62
2023/06/17 05:04:03;;;;;;;3.97;1.58;;;;;;;17.27;69.50;99255.78;5036391;28;20045;-62
2023/06/17 05:06:33;;;;;;;0.85;0.80;;;;;;;17.43;69.41;99253.50;5051720;28;20128;-62
2023/06/17 05:09:06;;;;;;;0.70;0.70;;;;;;;17.62;68.73;99256.28;5036193;28;20072;-62
2023/06/17 05:11:35;;;;;;;0.90;0.88;;;;;;;17.75;68.50;99266.13;5051746;28;20056;-62
2023/06/17 05:14:04;;;;;;;1.60;1.00;;;;;;;17.83;67.67;99265.84;5036229;28;20060;-62
2023/06/17 05:16:33;;;;;;;2.00;1.80;;;;;;;17.78;67.44;99270.34;5035812;28;20050;-62
2023/06/17 05:19:02;;;;;;;1.30;1.10;;;;;;;17.92;67.22;99273.28;5035962;28;20076;-62
2023/06/17 05:21:33;;;;;;;1.33;1.20;;;;;;;17.83;66.82;99273.56;5051708;28;20045;-62
2023/06/17 05:24:04;;;;;;;1.33;1.00;;;;;;;17.77;67.04;99276.41;5036090;28;20053;-62
2023/06/17 05:26:33;;;;;;;2.38;0.98;;;;;;;17.80;66.64;99278.88;5036023;28;20049;-62
2023/06/17 05:29:02;;;;;;;1.65;1.20;;;;;;;17.92;66.57;99276.66;5035823;28;20128;-62
2023/06/17 05:31:33;;;;;;;1.65;1.25;;;;;;;17.98;66.04;99280.78;5036217;28;20075;-62
2023/06/17 05:34:02;;;;;;;1.15;0.80;;;;;;;18.18;65.83;99273.13;5051673;28;20507;-62
2023/06/17 05:36:32;;;;;;;0.80;0.80;;;;;;;18.30;65.61;99270.09;5050902;28;20100;-62
2023/06/17 05:39:02;;;;;;;1.50;1.40;;;;;;;18.49;65.43;99271.09;5051339;28;20705;-62
2023/06/17 05:41:30;;;;;;;0.80;0.80;;;;;;;18.56;64.97;99277.69;5051182;28;20053;-62
2023/06/17 05:43:59;;;;;;;3.13;1.15;;;;;;;18.68;64.90;99277.19;5051380;28;20092;-62
2023/06/17 05:46:29;;;;;;;2.10;1.40;;;;;;;18.41;64.75;99278.25;5035572;28;20045;-62
2023/06/17 05:48:58;;;;;;;1.42;1.05;;;;;;;18.40;65.25;99279.16;5050828;28;20046;-62
2023/06/17 05:51:28;;;;;;;1.30;0.93;;;;;;;18.48;65.20;99279.72;5035568;28;20076;-62
2023/06/17 05:54:01;;;;;;;0.88;0.88;;;;;;;18.63;65.17;99278.28;5035469;28;20574;-62
2023/06/17 05:56:30;;;;;;;1.55;1.23;;;;;;;18.73;64.80;99277.88;5035415;28;20045;-62
2023/06/17 05:58:59;;;;;;;2.22;1.30;;;;;;;18.85;64.58;99273.09;5034062;28;20041;-62
2023/06/17 06:01:35;;;;;;;1.75;0.93;;;;;;;18.97;64.38;99280.34;5035646;28;20128;-63
2023/06/17 06:04:05;;;;;;;0.68;0.68;;;;;;;18.88;64.05;99279.00;5035479;28;20045;-62
2023/06/17 06:06:33;;;;;;;0.82;0.77;;;;;;;18.79;64.44;99279.34;5050456;28;20051;-62
2023/06/17 06:09:04;;;;;;;0.50;0.50;;;;;;;18.76;64.90;99283.81;5035096;28;20045;-62
2023/06/17 06:11:33;;;;;;;1.33;1.00;;;;;;;18.89;65.15;99284.97;5035210;28;20426;-62
2023/06/17 06:14:03;;;;;;;1.00;0.90;;;;;;;19.06;64.82;99282.53;5050786;28;20048;-62
2023/06/17 06:16:32;;;;;;;1.98;1.02;;;;;;;19.30;64.92;99281.53;5050746;28;20129;-62
2023/06/17 06:19:01;;;;;;;0.88;0.85;;;;;;;19.47;64.48;99273.91;5035013;28;20041;-62
2023/06/17 06:21:30;;;;;;;3.40;1.50;;;;;;;19.47;63.87;99279.09;5050838;28;20501;-62
2023/06/17 06:23:59;;;;;;;0.70;0.65;;;;;;;19.72;63.97;99289.22;5034888;28;20336;-63
2023/06/17 06:26:36;;;;;;;1.95;0.93;;;;;;;19.90;63.60;99273.69;5034859;28;20054;-62
2023/06/17 06:29:07;;;;;;;0.80;0.80;;;;;;;19.90;63.02;99278.88;5033785;28;20042;-62
2023/06/17 06:31:36;;;;;;;1.52;1.05;;;;;;;19.90;63.08;99278.88;5050313;28;20137;-62
2023/06/17 06:34:05;;;;;;;1.45;0.70;;;;;;;19.88;63.25;99274.69;5035024;28;20408;-62
2023/06/17 06:36:34;;;;;;;0.88;0.88;;;;;;;20.10;63.79;99277.13;5034440;28;20136;-62
2023/06/17 06:39:03;;;;;;;1.25;1.15;;;;;;;20.34;62.85;99278.63;5050005;28;20054;-62
2023/06/17 06:41:32;;;;;;;0.50;0.50;;;;;;;20.52;61.45;99277.75;5050204;28;20578;-62
2023/06/17 06:44:22;;;;;;;1.08;0.98;;;;;;;20.80;59.90;99290.25;5034786;28;20302;-62
2023/06/17 06:46:55;;;;;;;0.68;0.68;;;;;;;20.91;59.50;99286.22;5034503;28;20037;-62
2023/06/17 06:49:24;;;;;;;1.85;1.00;;;;;;;21.03;58.92;99277.81;5033154;28;20064;-62
2023/06/17 06:51:53;;;;;;;1.05;0.95;;;;;;;21.17;58.55;99280.59;5034287;28;20061;-62
2023/06/17 06:54:23;;;;;;;0.93;0.88;;;;;;;21.21;58.33;99284.72;5034327;28;20065;-62
2023/06/17 06:56:52;;;;;;;1.10;1.00;;;;;;;21.25;58.01;99244.72;5034310;28;20045;-62
2023/06/17 06:59:22;;;;;;;1.63;1.30;;;;;;;21.51;58.64;99276.28;5049961;28;20374;-62
2023/06/17 07:01:51;;;;;;;0.80;0.63;;;;;;;21.62;58.80;99269.63;5034444;28;20444;-62
2023/06/17 07:04:21;;;;;;;1.20;1.10;;;;;;;21.64;59.16;99261.75;5033030;28;20042;-62
2023/06/17 07:06:54;;;;;;;0.65;0.65;;;;;;;21.77;58.71;99267.97;5050049;28;20045;-63
2023/06/17 07:09:28;;;;;;;0.73;0.52;;;;;;;21.97;57.03;99265.19;5049392;28;20052;-63
2023/06/17 07:11:57;;;;;;;1.00;0.95;;;;;;;22.12;55.32;99258.34;5033159;28;20137;-62
2023/06/17 07:14:28;;;;;;;2.30;1.07;;;;;;;22.03;54.85;99260.50;5049852;28;20138;-62
2023/06/17 07:16:58;;;;;;;1.40;0.85;;;;;;;22.20;55.47;99264.78;5049306;28;20140;-62
2023/06/17 07:19:28;;;;;;;0.77;0.70;;;;;;;22.20;54.78;99261.34;5033932;28;20041;-63
2023/06/17 07:21:56;;;;;;;0.50;0.50;;;;;;;22.13;55.06;99263.44;5049761;28;20416;-62
2023/06/17 07:24:27;;;;;;;0.80;0.80;;;;;;;22.30;54.86;99260.75;5033841;28;20561;-62
2023/06/17 07:26:56;;;;;;;0.90;0.90;;;;;;;22.32;54.66;99261.50;5033667;28;20053;-62
2023/06/17 07:29:27;;;;;;;1.50;1.00;;;;;;;22.31;54.72;99254.66;5033677;28;20045;-62
2023/06/17 07:31:57;;;;;;;0.80;0.80;;;;;;;22.36;55.88;99263.00;5032600;28;20049;-62
2023/06/17 07:34:26;;;;;;;0.70;0.70;;;;;;;22.44;56.67;99266.03;5049047;28;20041;-62
2023/06/17 07:36:55;;;;;;;1.02;0.93;;;;;;;22.59;56.95;99259.97;5048862;28;20060;-62
2023/06/17 07:39:23;;;;;;;1.30;1.20;;;;;;;22.75;56.33;99256.56;5049344;28;20053;-62
2023/06/17 07:41:52;;;;;;;0.57;0.57;;;;;;;22.93;54.78;99253.72;5033291;28;20049;-62
2023/06/17 07:44:21;;;;;;;0.70;0.70;;;;;;;23.10;54.32;99261.41;5033883;28;20042;-62
2023/06/17 07:46:52;;;;;;;1.35;1.13;;;;;;;23.26;53.98;99251.75;5034129;28;20551;-62
2023/06/17 07:49:21;;;;;;;0.65;0.65;;;;;;;23.30;53.30;99248.03;5033676;28;20045;-62
2023/06/17 07:51:50;;;;;;;2.47;1.07;;;;;;;23.41;52.71;99250.03;5033413;28;20133;-62
2023/06/17 07:54:19;;;;;;;1.25;0.70;;;;;;;23.46;51.46;99261.03;5033420;28;20060;-63
2023/06/17 07:56:48;;;;;;;0.67;0.67;;;;;;;23.50;51.21;99259.91;5033444;28;20132;-63
2023/06/17 07:59:16;;;;;;;1.10;0.88;;;;;;;23.45;50.77;99261.94;5033662;28;20301;-63
2023/06/17 08:01:45;;;;;;;0.60;0.60;;;;;;;23.64;51.21;99262.50;5033447;28;20514;-63
2023/06/17 08:04:16;;;;;;;;;;;;;;;23.78;51.75;99270.31;5034092;28;20041;-63
2023/06/17 08:06:45;;;;;;;1.13;1.02;;;;;;;23.67;52.48;99262.31;5033327;28;20008;-62
2023/06/17 08:09:14;;;;;;;1.02;0.70;;;;;;;23.49;53.36;99265.22;5033652;28;20045;-62
2023/06/17 08:11:43;;;;;;;0.52;0.52;;;;;;;23.61;54.65;99267.88;5033440;28;20395;-63
2023/06/17 08:14:11;;;;;;;0.75;0.65;;;;;;;23.71;54.88;99263.81;5033211;28;20045;-62
2023/06/17 08:16:40;;;;;;;1.48;1.10;;;;;;;23.88;54.01;99268.81;5033504;28;20609;-63
2023/06/17 08:19:09;;;;;;;0.80;0.80;;;;;;;23.98;52.01;99256.91;5033212;28;20072;-63
2023/06/17 08:21:41;;;;;;;0.60;0.60;;;;;;;23.99;50.34;99258.56;5033521;28;20072;-62
2023/06/17 08:24:18;;;;;;;0.55;0.55;;;;;;;24.02;50.07;99258.38;5033458;28;20045;-63
2023/06/17 08:26:47;;;;;;;0.80;0.80;;;;;;;23.99;50.45;99262.97;5033188;28;20050;-62
2023/06/17 08:29:16;;;;;;;3.67;1.10;;;;;;;23.98;49.88;99261.28;5033102;28;20098;-63
2023/06/17 08:31:47;;;;;;;0.65;0.65;;;;;;;23.92;49.29;99262.47;5033896;28;20574;-63
2023/06/17 08:34:16;;;;;;;0.60;0.60;;;;;;;23.94;49.06;99259.81;5033047;28;20080;-62
2023/06/17 08:36:49;;;;;;;0.40;0.40;;;;;;;24.10;48.88;99249.28;5032774;28;20053;-63
2023/06/17 08:39:18;;;;;;;7.32;0.90;;;;;;;24.26;48.48;99255.22;5033038;28;20049;-63
2023/06/17 08:41:49;;;;;;;0.50;0.50;;;;;;;24.31;47.81;99258.34;5032938;28;20103;-63
2023/06/17 08:44:20;;;;;;;;;;;;;;;24.31;47.22;99268.78;5033385;28;20041;-64
2023/06/17 08:46:51;;;;;;;0.82;0.73;;;;;;;24.19;47.16;99274.75;5033069;28;19975;-62
2023/06/17 08:49:23;;;;;;;0.50;0.50;;;;;;;23.91;47.54;99275.63;5032886;28;20045;-62
2023/06/17 08:51:54;;;;;;;0.60;0.60;;;;;;;23.77;47.49;99268.66;5048870;28;20124;-62
2023/06/17 08:54:24;;;;;;;0.52;0.52;;;;;;;23.83;47.69;99276.09;5036683;28;20111;-62
2023/06/17 08:56:53;;;;;;;0.35;0.35;;;;;;;23.95;47.96;99272.72;5036876;28;20041;-62
2023/06/17 08:59:22;;;;;;;0.80;0.80;;;;;;;23.97;47.68;99270.03;5036416;28;20045;-63
2023/06/17 09:01:53;;;;;;;1.02;0.95;;;;;;;24.15;47.45;99275.91;5035288;28;20051;-63
2023/06/17 09:04:23;;;;;;;0.50;0.50;;;;;;;24.20;47.59;99268.63;5036396;28;20050;-63
2023/06/17 09:06:53;;;;;;;0.40;0.40;;;;;;;24.26;47.91;99281.31;5035423;28;20046;-63
2023/06/17 09:09:22;;;;;;;0.63;0.63;;;;;;;24.18;47.81;99279.16;5036405;28;20049;-63
2023/06/17 09:11:52;;;;;;;0.70;0.70;;;;;;;24.38;47.78;99275.28;5036164;28;20534;-63
2023/06/17 09:14:25;;;;;;;0.57;0.57;;;;;;;24.52;47.44;99275.25;5036565;28;20072;-63
2023/06/17 09:16:54;;;;;;;2.25;0.80;;;;;;;24.50;46.96;99283.19;5036255;28;20054;-63
2023/06/17 09:19:24;;;;;;;0.75;0.68;;;;;;;24.29;46.84;99281.09;5036085;28;20065;-63
2023/06/17 09:21:55;;;;;;;0.70;0.70;;;;;;;24.10;47.19;99284.00;5036061;28;20042;-63
2023/06/17 09:24:30;;;;;;;1.13;0.80;;;;;;;23.95;49.92;99272.72;5036355;28;20041;-62
2023/06/17 09:26:59;;;;;;;1.15;0.70;;;;;;;23.67;51.46;99277.97;5036749;28;20049;-62
2023/06/17 09:29:30;;;;;;;2.00;1.30;;;;;;;23.39;52.86;99277.94;5036169;28;20128;-62
2023/06/17 09:32:02;;;;;;;1.02;0.95;;;;;;;23.22;53.92;99276.31;5035873;28;20128;-62
2023/06/17 09:34:31;;;;;;;0.90;0.90;;;;;;;23.03;54.32;99265.28;5035921;28;20192;-62
2023/06/17 09:37:03;;;;;;;0.50;0.50;;;;;;;22.87;54.50;99248.00;5035752;28;20458;-62
2023/06/17 09:39:33;;;;;;;0.50;0.50;;;;;;;22.97;53.31;99275.19;5035767;28;20053;-62
2023/06/17 09:42:09;;;;;;;0.85;0.77;;;;;;;22.93;52.30;99268.50;5035785;28;20041;-62
2023/06/17 09:44:38;;;;;;;0.63;0.63;;;;;;;23.01;52.53;99266.31;5035757;28;20523;-62
2023/06/17 09:47:08;;;;;;;0.63;0.63;;;;;;;23.11;52.41;99260.44;5035586;28;20037;-63
2023/06/17 09:49:37;;;;;;;0.60;0.50;;;;;;;;;;5035886;28;20500;-63
2023/06/17 09:52:09;;;;;;;0.65;0.65;;;;;;;23.29;50.74;99267.19;5035528;28;20053;-62
2023/06/17 09:54:41;;;;;;;0.50;0.50;;;;;;;23.64;50.92;99261.66;5035761;28;20049;-63
2023/06/17 09:57:13;;;;;;;0.70;0.60;;;;;;;24.09;51.35;99260.66;5050940;28;20136;-62
2023/06/17 09:59:43;;;;;;;0.85;0.85;;;;;;;24.46;50.74;99263.44;5035481;28;20042;-63
2023/06/17 10:02:12;;;;;;;0.75;0.68;;;;;;;24.67;49.94;99267.28;5035416;28;20071;-63
2023/06/17 10:04:41;;;;;;;0.77;0.77;;;;;;;24.94;49.24;99259.44;5035452;28;20046;-63
2023/06/17 10:07:12;;;;;;;0.50;0.50;;;;;;;24.90;48.28;99263.19;5035601;28;20795;-62
2023/06/17 10:09:42;;;;;;;1.13;0.90;;;;;;;25.05;49.26;99259.56;5035795;28;20073;-62
2023/06/17 10:12:11;;;;;;;;;;;;;;;25.29;49.32;99249.22;5035462;28;20050;-62
2023/06/17 10:14:40;;;;;;;;;;;;;;;25.27;49.53;99251.13;5035626;28;19920;-63
2023/06/17 10:17:11;;;;;;;0.40;0.40;;;;;;;24.93;48.51;99255.16;5035295;28;20279;-63
2023/06/17 10:19:41;;;;;;;0.65;0.40;;;;;;;24.88;47.56;99259.03;5035622;28;20475;-63
2023/06/17 10:22:15;;;;;;;1.23;0.77;;;;;;;25.18;47.44;99236.06;5034984;28;20073;-63
2023/06/17 10:24:44;;;;;;;0.50;0.50;;;;;;;25.17;46.13;99250.91;5034879;28;20079;-63
2023/06/17 10:27:13;;;;;;;0.55;0.55;;;;;;;25.08;46.13;99250.69;5034895;28;20049;-63
2023/06/17 10:29:43;;;;;;;0.50;0.50;;;;;;;24.87;46.84;99252.09;5035258;28;20047;-63
2023/06/17 10:32:20;;;;;;;1.33;0.98;;;;;;;24.67;46.77;99261.19;5034932;28;20113;-63
2023/06/17 10:35:11;;;;;;;0.98;0.65;;;;;;;24.39;46.74;99220.41;5035044;28;20053;-63
2023/06/17 10:37:42;;;;;;;0.43;0.43;;;;;;;24.68;47.49;99252.44;5023973;28;20140;-63
2023/06/17 10:40:23;;;;;;;2.13;0.73;;;;;;;24.78;48.42;99247.50;5034707;28;20542;-63
2023/06/17 10:43:17;;;;;;;1.42;0.90;;;;;;;24.89;47.95;99251.06;5034827;28;20069;-63
2023/06/17 10:45:52;;;;;;;0.50;0.50;;;;;;;24.72;49.18;99259.13;5034838;28;20132;-63
2023/06/17 10:48:23;;;;;;;0.40;0.40;;;;;;;24.42;49.22;99254.16;5034493;28;20471;-63
2023/06/17 10:50:54;;;;;;;1.05;0.70;;;;;;;24.27;50.09;99256.88;5034454;28;20049;-63
2023/06/17 10:53:30;;;;;;;0.60;0.60;;;;;;;24.51;49.21;99260.53;5034373;28;20099;-63
2023/06/17 10:56:01;;;;;;;0.50;0.50;;;;;;;24.63;48.45;99229.25;5035089;28;20045;-63
2023/06/17 10:58:31;;;;;;;0.70;0.70;;;;;;;24.88;48.19;99249.41;5034342;28;20049;-63
2023/06/17 11:01:02;;;;;;;0.80;0.80;;;;;;;25.03;49.13;99253.59;5034481;28;20053;-63
2023/06/17 11:03:31;;;;;;;0.40;0.40;;;;;;;25.17;48.50;99245.69;5050021;28;20045;-63
2023/06/17 11:06:02;;;;;;;0.80;0.50;;;;;;;25.50;48.11;99244.38;5034225;28;20052;-63
2023/06/17 11:08:33;;;;;;;0.40;0.40;;;;;;;25.63;46.94;99246.03;5034155;28;20041;-63
2023/06/17 11:11:15;;;;;;;0.60;0.60;;;;;;;25.51;46.24;99248.63;5034383;28;20053;-63
2023/06/17 11:13:47;;;;;;;0.45;0.45;;;;;;;25.53;45.61;99252.00;5034011;28;20038;-63
2023/06/17 11:16:16;;;;;;;0.50;0.50;;;;;;;25.69;45.68;99236.94;5033775;28;20450;-63
2023/06/17 11:18:45;;;;;;;0.82;0.82;;;;;;;25.95;44.95;99233.31;5033855;28;20049;-64
2023/06/17 11:21:18;;;;;;;0.57;0.57;;;;;;;26.10;44.22;99241.88;5034216;28;20076;-64
2023/06/17 11:23:49;;;;;;;0.73;0.73;;;;;;;26.08;43.88;99234.13;5049127;28;20133;-63
2023/06/17 11:26:19;;;;;;;1.17;0.52;;;;;;;26.11;43.94;99233.94;5033743;28;20128;-63
2023/06/17 11:28:49;;;;;;;0.73;0.70;;;;;;;26.54;44.87;99237.72;5034126;28;20075;-63
2023/06/17 11:31:18;;;;;;;0.45;0.45;;;;;;;26.87;46.02;99228.38;5033982;28;20049;-63
2023/06/17 11:33:47;;;;;;;0.80;0.80;;;;;;;26.65;44.36;99217.78;5033764;28;20054;-63
2023/06/17 11:36:17;;;;;;;0.82;0.60;;;;;;;26.30;44.16;99223.81;5033648;28;20061;-63
2023/06/17 11:38:48;;;;;;;0.88;0.75;;;;;;;25.79;43.58;99227.50;5032649;28;20056;-64
2023/06/17 11:41:19;;;;;;;0.80;0.73;;;;;;;25.30;44.86;99223.00;5033655;28;20137;-63
2023/06/17 11:43:49;;;;;;;1.60;1.23;;;;;;;25.07;44.73;99223.75;5033634;28;20049;-63
2023/06/17 11:46:21;;;;;;;1.48;1.33;;;;;;;25.02;44.80;99218.00;5033653;28;20063;-63
2023/06/17 11:48:50;;;;;;;0.55;0.55;;;;;;;25.29;44.26;99223.94;5033548;28;20136;-63
2023/06/17 11:51:20;;;;;;;0.55;0.55;;;;;;;25.45;43.59;99212.47;5033844;28;20072;-63